Aviation Digital Data Service (ADDS)

Output produced by METARs form (0351 UTC 06 December 2019)
found at http://www.aviationweather.gov/metar/data/
 
NSFA 060300Z 08014KT 9999 FEW020TCU SCT022 29/25 Q1010 RMK TCU TO
NSFA 060200Z 05012G23KT 9999 VCSH SCT020 BKN040 30/24 Q1011 RMK
NSFA 060100Z 06011KT 9999 SCT028 BKN280 31/25 Q1010 RMK NIL
NSFA 060000Z 04011KT 9999 SCT028 BKN270 32/25 Q1011 RMK NIL
NSFA 052300Z 03014KT 9999 FEW024 SCT270 33/25 Q1011 NOSIG
NSFA 052200Z 04011KT 9999 FEW024 SCT270 33/25 Q1012 NOSIG
NSFA 052100Z 07008KT 050V120 9999 FEW022 SCT280 32/23 Q1012
NSFA 052000Z 08007KT 030V110 9999 FEW026 SCT280 30/24 Q1012
NSFA 051900Z 00000KT 9999 FEW026 SCT290 29/23 Q1012 NOSIG
NSFA 051800Z 16003KT 9999 FEW024 26/23 Q1011 NOSIG
NSFA 051700Z 17004KT 9999 FEW024 22/21 Q1011 NOSIG
NSFA 051500Z 16003KT 9999 FEW024 23/22 Q1010 NOSIG
NSFA 051400Z 14003KT 9999 FEW026 23/22 Q1010 NOSIG
NSFA 051300Z 16004KT 9999 FEW022 23/23 Q1011 NOSIG
NSFA 051200Z 19004KT 9999 FEW023 24/23 Q1011 NOSIG
NSFA 051100Z 12004KT 9999 FEW022 SCT280 24/23 Q1012 RMK NIL
NSFA 051000Z 00000KT 9999 SCT026 24/23 Q1012 RMK NIL
NSFA 050900Z VRB03KT 9999 SCT026 24/23 Q1012 RMK NIL
NSFA 050800Z 11003KT 9999 SCT028 25/24 Q1011 RMK NIL
NSFA 050700Z 14003KT 9999 SCT026 25/24 Q1011 RMK NIL
NSFA 050600Z 12003KT 9999 SCT026 BKN290 27/25 Q1010 RMK NIL
NSFA 050500Z 07007KT 9999 SCT026 30/24 Q1010 RMK NIL
NSFA 050400Z 06009KT 030V100 9999 FEW026 SCT290 30/24 Q1009 RMK
TAF NSFA 052309Z 0600/0624 03014KT 9999 SCT024 
     PROB40 
     TEMPO 0602/0612 5000 TSRA BKN015 FEW017CB